ES-0209 weather

Aeródromo de Griñón
Griñón, Madrid, Spain

Public forecast

Using degrees Celsius for public forecast. Weather courtesy of forecast.io.

Closest aviation weather report (METAR) to Aeródromo de Griñón

Closest report is Getafe Air Base, 7.8 nm (14.4 km) ENE. Retrieved 2019/10/18 15:00 UTC (32 minutes ago):

LEGT 181500Z 26014KT 220V280 9999 FEW020 SCT030 20/15 Q1016

Closest aviation forecast (TAF) to Aeródromo de Griñón

Forecast is more than 12 hours old.

Closest forecast is Getafe Air Base, 7.8 nm (14.4 km) ENE. Retrieved 2018/03/28 12:33 UTC (2 years ago):

TAF LEGT 281100Z 2812/2824 24010KT CAVOK PROB40 TEMPO 2814/2818 27015G25KT TEMPO 2820/2824 28008KT